Terminal Aerodrome Forecast
Issued by NWS Cleveland, OH

Home | Current Version | Previous Version | Text Only | Print | Product List | Glossary Off
Versions: 1 2 3 4 5 6 7 8 9 10 11 12 13 14 15 16 17 18 19 20 21 22 23

000
FTUS41 KCLE 191715 AAC
TAFMFD
TAF AMD
KMFD 191715Z 1917/2012 01010KT P6SM VCTS SCT010 BKN035CB
      TEMPO 1917/1918 2SM -TSRA BKN012CB
     FM191900 02010KT P6SM VCSH SCT025 OVC035
     FM200200 05006KT P6SM BKN035 OVC100=

USA.gov is the U.S. government's official web portal to all federal, state and local government web resources and services.